createdAt,value
2022-09-13T00:00:12.898Z,100125.47
2022-09-13T00:05:15.801Z,100115.56
2022-09-13T00:10:18.514Z,100115.03
2022-09-13T00:15:22.442Z,100109.22
2022-09-13T00:20:26.504Z,100107.22
2022-09-13T00:25:29.179Z,100094.53
2022-09-13T00:30:33.446Z,100100.69
2022-09-13T00:35:35.886Z,100096.44
2022-09-13T00:40:39.118Z,100098.72
2022-09-13T00:45:43.161Z,100092.78
2022-09-13T00:50:51.941Z,100087.13
2022-09-13T00:55:59.041Z,100072.03
2022-09-13T01:01:08.963Z,100079.72
2022-09-13T01:06:15.245Z,100069.06
2022-09-13T01:11:25.119Z,100069.25
2022-09-13T01:16:29.104Z,100066.47
2022-09-13T01:22:10.882Z,100065.16
2022-09-13T01:27:38.361Z,100058.78
2022-09-13T01:33:06.734Z,100060.97
2022-09-13T01:38:26.782Z,100061.41
2022-09-13T01:43:43.945Z,100062.91
2022-09-13T01:48:56.346Z,100042.97
2022-09-13T01:54:14.431Z,100040.28
2022-09-13T01:59:23.893Z,100027.75
2022-09-13T02:04:35.295Z,100028.84
2022-09-13T02:09:42.765Z,100030.97
2022-09-13T02:14:49.820Z,100023.22
2022-09-13T02:19:58.519Z,100023.97
2022-09-13T02:25:06.066Z,100015.06
2022-09-13T02:30:11.154Z,100005.44
2022-09-13T02:35:20.385Z,99988.09
2022-09-13T02:40:34.419Z,99961.13
2022-09-13T02:45:46.597Z,99967.78
2022-09-13T02:51:01.047Z,99963.06
2022-09-13T02:56:12.336Z,99965.63
2022-09-13T03:01:16.155Z,99985.47
2022-09-13T03:06:25.306Z,99982.31
2022-09-13T03:11:42.489Z,99970.13
2022-09-13T03:17:00.898Z,99966.66
2022-09-13T03:22:28.910Z,99964.09
2022-09-13T03:27:40.714Z,99962.44
2022-09-13T03:32:51.746Z,99971.16
2022-09-13T03:37:59.269Z,99967.72
2022-09-13T03:43:09.441Z,99956.94
2022-09-13T03:48:13.515Z,99960.84
2022-09-13T03:53:22.979Z,99956.78
2022-09-13T03:58:27.368Z,99941.97
2022-09-13T04:03:31.923Z,99929.22
2022-09-13T04:08:35.846Z,99938.28
2022-09-13T04:13:38.981Z,99940.53
2022-09-13T04:18:41.507Z,99939.53
2022-09-13T04:23:45.528Z,99949.56
2022-09-13T04:28:48.080Z,99950.03
2022-09-13T04:33:50.765Z,99944.09
2022-09-13T04:38:54.810Z,99940.25
2022-09-13T04:43:57.535Z,99946.41
2022-09-13T04:49:00.132Z,99943.66
2022-09-13T04:54:04.434Z,99937.38
2022-09-13T04:59:07.002Z,99931.56
2022-09-13T05:04:10.658Z,99931.72
2022-09-13T05:09:16.671Z,99925.91
2022-09-13T05:14:20.979Z,99920.88
2022-09-13T05:19:24.524Z,99917.16
2022-09-13T05:24:28.646Z,99912.97
2022-09-13T05:29:31.105Z,99916.34
2022-09-13T05:34:33.575Z,99916.00
2022-09-13T05:40:00.404Z,99918.56
2022-09-13T05:45:00.110Z,99917.63
2022-09-13T05:50:10.438Z,99906.38
2022-09-13T05:55:16.182Z,99898.34
2022-09-13T06:00:18.867Z,99905.97
2022-09-13T06:05:21.353Z,99908.69
2022-09-13T06:10:25.321Z,99906.00
2022-09-13T06:15:27.769Z,99895.13
2022-09-13T06:20:31.164Z,99896.94
2022-09-13T06:25:35.050Z,99884.47
2022-09-13T06:30:38.075Z,99888.41
2022-09-13T06:35:40.540Z,99907.38
2022-09-13T06:40:44.826Z,99915.75
2022-09-13T06:45:49.291Z,99913.28
2022-09-13T06:50:51.910Z,99900.03
2022-09-13T06:56:03.607Z,99891.38
2022-09-13T07:01:12.635Z,99895.91
2022-09-13T07:06:21.512Z,99887.03
2022-09-13T07:11:29.882Z,99899.38
2022-09-13T07:16:33.868Z,99885.53
2022-09-13T07:21:36.744Z,99879.06
2022-09-13T07:26:40.527Z,99893.13
2022-09-13T07:31:45.450Z,99891.47
2022-09-13T07:36:49.271Z,99898.91
2022-09-13T07:41:53.830Z,99901.13
2022-09-13T07:46:56.939Z,99907.19
2022-09-13T07:51:59.429Z,99918.25
2022-09-13T07:57:03.309Z,99902.69
2022-09-13T08:02:05.917Z,99908.75
2022-09-13T08:07:08.475Z,99897.34
2022-09-13T08:12:12.331Z,99885.03
2022-09-13T08:17:14.973Z,99894.66
2022-09-13T08:22:17.523Z,99887.03
2022-09-13T08:27:21.311Z,99897.94
2022-09-13T08:32:23.826Z,99899.00
2022-09-13T08:37:26.372Z,99898.63
2022-09-13T08:42:47.249Z,99905.84
2022-09-13T08:47:57.421Z,99901.81
2022-09-13T08:53:09.638Z,99891.97
2022-09-13T08:58:31.062Z,99894.31
2022-09-13T09:03:42.853Z,99893.94
2022-09-13T09:08:50.704Z,99902.69
2022-09-13T09:13:58.697Z,99886.13
2022-09-13T09:19:10.934Z,99892.75
2022-09-13T09:24:19.938Z,99899.59
2022-09-13T09:29:27.030Z,99896.00
2022-09-13T09:34:43.793Z,99891.31
2022-09-13T09:39:46.625Z,99887.38
2022-09-13T09:44:53.377Z,99885.13
2022-09-13T09:50:10.774Z,99887.50
2022-09-13T09:55:21.180Z,99871.72
2022-09-13T10:00:28.375Z,99867.41
2022-09-13T10:05:32.455Z,99863.16
2022-09-13T10:10:41.691Z,99867.53
2022-09-13T10:15:55.408Z,99857.06
2022-09-13T10:21:04.217Z,99845.00
2022-09-13T10:26:12.242Z,99841.47
2022-09-13T10:31:17.973Z,99836.19
2022-09-13T10:36:50.722Z,99835.25
2022-09-13T10:41:52.051Z,99844.41
2022-09-13T10:46:56.437Z,99829.94
2022-09-13T10:51:58.900Z,99829.91
2022-09-13T10:57:01.839Z,99836.56
2022-09-13T11:02:36.294Z,99837.84
2022-09-13T11:07:45.069Z,99827.84
2022-09-13T11:12:55.889Z,99821.34
2022-09-13T11:18:25.898Z,99820.50
2022-09-13T11:23:42.996Z,99815.69
2022-09-13T11:28:57.742Z,99811.94
2022-09-13T11:34:13.001Z,99800.28
2022-09-13T11:39:28.064Z,99790.19
2022-09-13T11:44:52.169Z,99793.44
2022-09-13T11:50:11.132Z,99781.59
2022-09-13T11:55:18.863Z,99786.84
2022-09-13T12:00:23.950Z,99784.88
2022-09-13T12:05:32.976Z,99782.69
2022-09-13T12:10:45.783Z,99770.13
2022-09-13T12:15:52.880Z,99764.28
2022-09-13T12:21:00.615Z,99760.47
2022-09-13T12:26:09.972Z,99756.13
2022-09-13T12:31:17.001Z,99753.22
2022-09-13T12:36:57.380Z,99756.22
2022-09-13T12:42:27.418Z,99757.72
2022-09-13T12:47:55.218Z,99762.88
2022-09-13T12:53:10.738Z,99752.66
2022-09-13T12:58:30.325Z,99756.22
2022-09-13T13:03:38.356Z,99755.53
2022-09-13T13:08:51.613Z,99736.34
2022-09-13T13:13:59.113Z,99730.78
2022-09-13T13:19:08.670Z,99718.75
2022-09-13T13:24:47.112Z,99712.00
2022-09-13T13:30:36.037Z,99705.66
2022-09-13T13:35:38.729Z,99702.44
2022-09-13T13:40:42.776Z,99706.00
2022-09-13T13:45:59.964Z,99702.28
2022-09-13T13:51:27.329Z,99697.16
2022-09-13T13:56:48.095Z,99690.38
2022-09-13T14:01:55.360Z,99686.41
2022-09-13T14:07:18.980Z,99688.78
2022-09-13T14:12:47.657Z,99681.28
2022-09-13T14:18:22.457Z,99668.41
2022-09-13T14:23:25.185Z,99668.81
2022-09-13T14:28:29.657Z,99662.50
2022-09-13T14:33:36.226Z,99655.72
2022-09-13T14:38:38.942Z,99663.63
2022-09-13T14:43:43.593Z,99648.22
2022-09-13T14:48:51.525Z,99647.00
2022-09-13T14:53:58.188Z,99638.44
2022-09-13T14:59:06.669Z,99645.38
2022-09-13T15:04:09.233Z,99649.34
2022-09-13T15:09:18.609Z,99652.19
2022-09-13T15:14:28.207Z,99643.03
2022-09-13T15:19:37.667Z,99639.03
2022-09-13T15:24:44.957Z,99640.63
2022-09-13T15:29:53.995Z,99643.44
2022-09-13T15:34:58.429Z,99632.66
2022-09-13T15:40:14.385Z,99639.84
2022-09-13T15:45:19.709Z,99642.59
2022-09-13T15:50:26.911Z,99643.03
2022-09-13T15:55:29.774Z,99654.59
2022-09-13T16:00:33.768Z,99643.41
2022-09-13T16:05:36.878Z,99637.41
2022-09-13T16:10:39.658Z,99625.09
2022-09-13T16:15:44.150Z,99638.53
2022-09-13T16:20:46.767Z,99641.28
2022-09-13T16:25:50.213Z,99642.94
2022-09-13T16:30:54.737Z,99641.38
2022-09-13T16:36:02.008Z,99640.94
2022-09-13T16:41:07.189Z,99636.97
2022-09-13T16:46:13.502Z,99645.81
2022-09-13T16:51:16.374Z,99647.41
2022-09-13T16:56:21.569Z,99654.44
2022-09-13T17:01:27.455Z,99648.44
2022-09-13T17:06:30.456Z,99666.75
2022-09-13T17:11:38.406Z,99659.53
2022-09-13T17:16:45.046Z,99665.78
2022-09-13T17:21:48.695Z,99668.00
2022-09-13T17:26:51.356Z,99666.13
2022-09-13T17:31:55.166Z,99669.22
2022-09-13T17:36:57.773Z,99662.66
2022-09-13T17:42:00.231Z,99664.69
2022-09-13T17:47:04.254Z,99660.22
2022-09-13T17:52:08.175Z,99665.97
2022-09-13T17:57:11.861Z,99672.72
2022-09-13T18:02:16.202Z,99678.25
2022-09-13T18:07:19.165Z,99676.16
2022-09-13T18:12:21.832Z,99666.94
2022-09-13T18:17:25.745Z,99663.41
2022-09-13T18:22:28.232Z,99670.84
2022-09-13T18:27:30.725Z,99661.22
2022-09-13T18:32:34.646Z,99658.47
2022-09-13T18:37:37.042Z,99655.94
2022-09-13T18:42:41.008Z,99667.50
2022-09-13T18:47:45.039Z,99671.16
2022-09-13T18:52:47.575Z,99677.94
2022-09-13T18:57:49.995Z,99689.38
2022-09-13T19:03:11.253Z,99697.84
2022-09-13T19:08:14.573Z,99704.72
2022-09-13T19:13:17.188Z,99706.22
2022-09-13T19:18:21.097Z,99717.31
2022-09-13T19:23:33.779Z,99723.38
2022-09-13T19:28:47.820Z,99726.25
2022-09-13T19:33:52.178Z,99725.78
2022-09-13T19:38:57.023Z,99728.78
2022-09-13T19:44:01.717Z,99733.34
2022-09-13T19:49:06.947Z,99721.75
2022-09-13T19:54:12.316Z,99726.09
2022-09-13T19:59:19.728Z,99719.19
2022-09-13T20:04:25.530Z,99721.00
2022-09-13T20:09:28.216Z,99713.53
2022-09-13T20:14:34.811Z,99720.03
2022-09-13T20:19:43.525Z,99720.66
2022-09-13T20:24:48.736Z,99718.47
2022-09-13T20:29:51.696Z,99719.66
2022-09-13T20:34:55.666Z,99718.00
2022-09-13T20:40:03.185Z,99713.63
2022-09-13T20:45:07.452Z,99708.38
2022-09-13T20:50:12.209Z,99706.41
2022-09-13T20:55:15.745Z,99711.22
2022-09-13T21:00:18.307Z,99710.94
2022-09-13T21:05:22.102Z,99704.28
2022-09-13T21:10:26.126Z,99696.47
2022-09-13T21:15:28.608Z,99700.75
2022-09-13T21:20:33.995Z,99709.09
2022-09-13T21:25:37.269Z,99718.13
2022-09-13T21:30:40.958Z,99723.69
2022-09-13T21:35:44.977Z,99727.13
2022-09-13T21:41:00.033Z,99734.34
2022-09-13T21:46:04.747Z,99741.16
2022-09-13T21:51:11.586Z,99732.84
2022-09-13T21:56:16.720Z,99734.19
2022-09-13T22:01:22.535Z,99724.28
2022-09-13T22:06:31.354Z,99729.44
2022-09-13T22:11:38.474Z,99722.88
2022-09-13T22:16:43.377Z,99722.19
2022-09-13T22:21:49.053Z,99727.25
2022-09-13T22:26:53.173Z,99729.91
2022-09-13T22:31:55.838Z,99728.56
2022-09-13T22:37:02.965Z,99719.75
2022-09-13T22:42:05.996Z,99713.69
2022-09-13T22:47:09.279Z,99710.47
2022-09-13T22:52:13.258Z,99720.19
2022-09-13T22:57:15.664Z,99724.41
2022-09-13T23:02:18.126Z,99717.09
2022-09-13T23:07:21.930Z,99712.13
2022-09-13T23:12:24.507Z,99709.19
2022-09-13T23:17:27.172Z,99712.66
2022-09-13T23:22:31.186Z,99710.44
2022-09-13T23:27:33.636Z,99712.72
2022-09-13T23:32:36.067Z,99709.34
2022-09-13T23:37:40.168Z,99710.13
2022-09-13T23:42:42.780Z,99704.63
2022-09-13T23:47:45.310Z,99686.03
2022-09-13T23:52:49.396Z,99688.72
2022-09-13T23:57:51.860Z,99676.75
